sensor_id;sensor_type;location;lat;lon;timestamp;temperature;humidity
46331;DHT22;32049;52.346;4.870;2022-11-20T00:01:12;1.90;99.90
46331;DHT22;32049;52.346;4.870;2022-11-20T00:03:59;1.80;99.90
46331;DHT22;32049;52.346;4.870;2022-11-20T00:06:46;1.90;99.90
46331;DHT22;32049;52.346;4.870;2022-11-20T00:09:33;1.80;99.90
46331;DHT22;32049;52.346;4.870;2022-11-20T00:12:20;1.70;99.90
46331;DHT22;32049;52.346;4.870;2022-11-20T00:15:08;1.70;99.90
46331;DHT22;32049;52.346;4.870;2022-11-20T00:17:56;1.80;99.90
46331;DHT22;32049;52.346;4.870;2022-11-20T00:20:44;1.60;99.90
46331;DHT22;32049;52.346;4.870;2022-11-20T00:23:31;1.50;99.90
46331;DHT22;32049;52.346;4.870;2022-11-20T00:26:19;1.50;99.90
46331;DHT22;32049;52.346;4.870;2022-11-20T00:29:08;1.70;99.90
46331;DHT22;32049;52.346;4.870;2022-11-20T00:31:57;1.70;99.90
46331;DHT22;32049;52.346;4.870;2022-11-20T00:34:45;1.70;99.90
46331;DHT22;32049;52.346;4.870;2022-11-20T00:37:32;1.60;99.90
46331;DHT22;32049;52.346;4.870;2022-11-20T00:40:20;1.60;99.90
46331;DHT22;32049;52.346;4.870;2022-11-20T00:43:07;1.70;99.90
46331;DHT22;32049;52.346;4.870;2022-11-20T00:46:01;1.60;99.90
46331;DHT22;32049;52.346;4.870;2022-11-20T00:48:49;1.60;99.90
46331;DHT22;32049;52.346;4.870;2022-11-20T00:51:37;1.60;99.90
46331;DHT22;32049;52.346;4.870;2022-11-20T00:54:24;1.50;99.90
46331;DHT22;32049;52.346;4.870;2022-11-20T00:57:12;1.50;99.90
46331;DHT22;32049;52.346;4.870;2022-11-20T01:00:00;1.60;99.90
46331;DHT22;32049;52.346;4.870;2022-11-20T01:02:47;1.60;99.90
46331;DHT22;32049;52.346;4.870;2022-11-20T01:05:35;1.70;99.90
46331;DHT22;32049;52.346;4.870;2022-11-20T01:08:23;1.50;99.90
46331;DHT22;32049;52.346;4.870;2022-11-20T01:11:12;1.40;99.90
46331;DHT22;32049;52.346;4.870;2022-11-20T01:17:03;1.50;99.90
46331;DHT22;32049;52.346;4.870;2022-11-20T01:19:55;1.40;99.90
46331;DHT22;32049;52.346;4.870;2022-11-20T01:22:56;1.40;99.90
46331;DHT22;32049;52.346;4.870;2022-11-20T01:25:51;1.40;99.90
46331;DHT22;32049;52.346;4.870;2022-11-20T01:28:40;1.50;99.90
46331;DHT22;32049;52.346;4.870;2022-11-20T01:31:37;1.50;99.90
46331;DHT22;32049;52.346;4.870;2022-11-20T01:34:33;1.50;99.90
46331;DHT22;32049;52.346;4.870;2022-11-20T01:37:34;1.40;99.90
46331;DHT22;32049;52.346;4.870;2022-11-20T01:40:31;1.40;99.90
46331;DHT22;32049;52.346;4.870;2022-11-20T01:43:24;1.40;99.90
46331;DHT22;32049;52.346;4.870;2022-11-20T01:46:22;1.30;99.90
46331;DHT22;32049;52.346;4.870;2022-11-20T01:52:17;1.40;99.90
46331;DHT22;32049;52.346;4.870;2022-11-20T01:58:16;1.30;99.90
46331;DHT22;32049;52.346;4.870;2022-11-20T02:01:10;1.40;99.90
46331;DHT22;32049;52.346;4.870;2022-11-20T02:04:02;1.30;99.90
46331;DHT22;32049;52.346;4.870;2022-11-20T02:07:08;1.30;99.90
46331;DHT22;32049;52.346;4.870;2022-11-20T02:09:57;1.20;99.90
46331;DHT22;32049;52.346;4.870;2022-11-20T02:12:45;1.10;99.90
46331;DHT22;32049;52.346;4.870;2022-11-20T02:15:57;1.10;99.90
46331;DHT22;32049;52.346;4.870;2022-11-20T02:18:45;1.20;99.90
46331;DHT22;32049;52.346;4.870;2022-11-20T02:21:40;1.20;99.90
46331;DHT22;32049;52.346;4.870;2022-11-20T02:24:31;1.10;99.90
46331;DHT22;32049;52.346;4.870;2022-11-20T02:27:20;1.20;99.90
46331;DHT22;32049;52.346;4.870;2022-11-20T02:30:15;1.10;99.90
46331;DHT22;32049;52.346;4.870;2022-11-20T02:33:13;1.00;99.90
46331;DHT22;32049;52.346;4.870;2022-11-20T02:36:16;1.10;99.90
46331;DHT22;32049;52.346;4.870;2022-11-20T02:39:14;1.20;99.90
46331;DHT22;32049;52.346;4.870;2022-11-20T02:42:25;1.10;99.90
46331;DHT22;32049;52.346;4.870;2022-11-20T02:45:18;1.00;99.90
46331;DHT22;32049;52.346;4.870;2022-11-20T02:48:11;1.10;99.90
46331;DHT22;32049;52.346;4.870;2022-11-20T02:51:43;1.10;99.90
46331;DHT22;32049;52.346;4.870;2022-11-20T02:54:40;1.10;99.90
46331;DHT22;32049;52.346;4.870;2022-11-20T02:57:33;1.10;99.90
46331;DHT22;32049;52.346;4.870;2022-11-20T03:00:27;1.20;99.90
46331;DHT22;32049;52.346;4.870;2022-11-20T03:03:23;1.00;99.90
46331;DHT22;32049;52.346;4.870;2022-11-20T03:06:16;1.00;99.90
46331;DHT22;32049;52.346;4.870;2022-11-20T03:09:06;1.00;99.90
46331;DHT22;32049;52.346;4.870;2022-11-20T03:12:00;1.00;99.90
46331;DHT22;32049;52.346;4.870;2022-11-20T03:14:52;1.00;99.90
46331;DHT22;32049;52.346;4.870;2022-11-20T04:19:21;0.70;99.90
46331;DHT22;32049;52.346;4.870;2022-11-20T04:22:09;0.70;99.90
46331;DHT22;32049;52.346;4.870;2022-11-20T04:25:03;0.70;99.90
46331;DHT22;32049;52.346;4.870;2022-11-20T04:27:51;0.80;99.90
46331;DHT22;32049;52.346;4.870;2022-11-20T04:30:41;0.70;99.90
46331;DHT22;32049;52.346;4.870;2022-11-20T04:33:30;0.70;99.90
46331;DHT22;32049;52.346;4.870;2022-11-20T04:36:22;0.70;99.90
46331;DHT22;32049;52.346;4.870;2022-11-20T04:39:15;0.70;99.90
46331;DHT22;32049;52.346;4.870;2022-11-20T04:42:02;0.80;99.90
46331;DHT22;32049;52.346;4.870;2022-11-20T04:45:10;1.00;99.90
46331;DHT22;32049;52.346;4.870;2022-11-20T04:48:09;0.80;99.90
46331;DHT22;32049;52.346;4.870;2022-11-20T04:51:06;0.70;99.90
46331;DHT22;32049;52.346;4.870;2022-11-20T04:53:57;0.60;99.90
46331;DHT22;32049;52.346;4.870;2022-11-20T04:56:51;0.60;99.90
46331;DHT22;32049;52.346;4.870;2022-11-20T04:59:49;0.60;99.90
46331;DHT22;32049;52.346;4.870;2022-11-20T05:02:45;0.50;99.90
46331;DHT22;32049;52.346;4.870;2022-11-20T05:05:36;0.60;99.90
46331;DHT22;32049;52.346;4.870;2022-11-20T05:08:36;0.50;99.90
46331;DHT22;32049;52.346;4.870;2022-11-20T05:11:40;0.60;99.90
46331;DHT22;32049;52.346;4.870;2022-11-20T05:14:32;0.60;99.90
46331;DHT22;32049;52.346;4.870;2022-11-20T05:17:32;0.50;99.90
46331;DHT22;32049;52.346;4.870;2022-11-20T05:20:57;0.40;99.90
46331;DHT22;32049;52.346;4.870;2022-11-20T05:23:53;0.50;99.90
46331;DHT22;32049;52.346;4.870;2022-11-20T05:26:43;0.50;99.90
46331;DHT22;32049;52.346;4.870;2022-11-20T05:29:43;0.50;99.90
46331;DHT22;32049;52.346;4.870;2022-11-20T05:33:15;0.50;99.90
46331;DHT22;32049;52.346;4.870;2022-11-20T05:36:23;0.40;99.90
46331;DHT22;32049;52.346;4.870;2022-11-20T05:39:19;0.60;99.90
46331;DHT22;32049;52.346;4.870;2022-11-20T05:42:07;0.60;99.90
46331;DHT22;32049;52.346;4.870;2022-11-20T05:45:14;0.50;99.90
46331;DHT22;32049;52.346;4.870;2022-11-20T05:48:02;0.50;99.90
46331;DHT22;32049;52.346;4.870;2022-11-20T05:51:00;0.50;99.90
46331;DHT22;32049;52.346;4.870;2022-11-20T05:54:07;0.40;99.90
46331;DHT22;32049;52.346;4.870;2022-11-20T05:57:06;0.50;99.90
46331;DHT22;32049;52.346;4.870;2022-11-20T05:59:56;0.50;99.90
46331;DHT22;32049;52.346;4.870;2022-11-20T06:02:53;0.50;99.90
46331;DHT22;32049;52.346;4.870;2022-11-20T06:05:46;0.60;99.90
46331;DHT22;32049;52.346;4.870;2022-11-20T06:08:37;0.60;99.90
46331;DHT22;32049;52.346;4.870;2022-11-20T06:11:43;0.50;99.90
46331;DHT22;32049;52.346;4.870;2022-11-20T06:14:50;0.60;99.90
46331;DHT22;32049;52.346;4.870;2022-11-20T09:18:38;2.00;99.90
46331;DHT22;32049;52.346;4.870;2022-11-20T09:21:30;2.20;99.90
46331;DHT22;32049;52.346;4.870;2022-11-20T09:24:19;2.10;99.90
46331;DHT22;32049;52.346;4.870;2022-11-20T09:27:10;2.30;99.90
46331;DHT22;32049;52.346;4.870;2022-11-20T09:30:04;2.40;99.90
46331;DHT22;32049;52.346;4.870;2022-11-20T09:32:54;2.50;99.90
46331;DHT22;32049;52.346;4.870;2022-11-20T09:35:43;2.60;99.90
46331;DHT22;32049;52.346;4.870;2022-11-20T09:38:36;2.50;99.90
46331;DHT22;32049;52.346;4.870;2022-11-20T09:55:25;2.70;99.90
46331;DHT22;32049;52.346;4.870;2022-11-20T09:58:25;2.70;99.90
46331;DHT22;32049;52.346;4.870;2022-11-20T10:01:18;3.00;99.90
46331;DHT22;32049;52.346;4.870;2022-11-20T10:04:19;3.10;99.90
46331;DHT22;32049;52.346;4.870;2022-11-20T10:07:13;3.00;99.90
46331;DHT22;32049;52.346;4.870;2022-11-20T10:10:22;3.10;99.90
46331;DHT22;32049;52.346;4.870;2022-11-20T10:16:33;3.20;99.90
46331;DHT22;32049;52.346;4.870;2022-11-20T10:19:30;3.10;99.90
46331;DHT22;32049;52.346;4.870;2022-11-20T10:22:48;3.10;99.90
46331;DHT22;32049;52.346;4.870;2022-11-20T10:29:11;3.10;99.90
46331;DHT22;32049;52.346;4.870;2022-11-20T10:32:02;3.10;99.90
46331;DHT22;32049;52.346;4.870;2022-11-20T10:34:57;3.10;99.90
46331;DHT22;32049;52.346;4.870;2022-11-20T10:37:55;3.20;99.90
46331;DHT22;32049;52.346;4.870;2022-11-20T10:40:49;3.10;99.90
46331;DHT22;32049;52.346;4.870;2022-11-20T10:44:29;3.10;99.90
46331;DHT22;32049;52.346;4.870;2022-11-20T10:51:15;3.10;99.90
46331;DHT22;32049;52.346;4.870;2022-11-20T10:57:39;3.20;99.90
46331;DHT22;32049;52.346;4.870;2022-11-20T11:00:40;3.20;99.90
46331;DHT22;32049;52.346;4.870;2022-11-20T11:03:31;3.40;99.90
46331;DHT22;32049;52.346;4.870;2022-11-20T11:06:39;3.30;99.90
46331;DHT22;32049;52.346;4.870;2022-11-20T11:09:34;3.50;99.90
46331;DHT22;32049;52.346;4.870;2022-11-20T11:12:24;3.30;99.90
46331;DHT22;32049;52.346;4.870;2022-11-20T11:51:10;3.50;99.90
46331;DHT22;32049;52.346;4.870;2022-11-20T11:53:58;3.30;99.90
46331;DHT22;32049;52.346;4.870;2022-11-20T11:56:47;3.30;99.90
46331;DHT22;32049;52.346;4.870;2022-11-20T12:25:34;3.40;99.90
46331;DHT22;32049;52.346;4.870;2022-11-20T12:34:04;3.70;99.90
46331;DHT22;32049;52.346;4.870;2022-11-20T12:39:51;3.50;99.90
46331;DHT22;32049;52.346;4.870;2022-11-20T12:42:45;3.50;99.90
46331;DHT22;32049;52.346;4.870;2022-11-20T12:45:54;3.40;99.90
46331;DHT22;32049;52.346;4.870;2022-11-20T12:57:44;3.40;99.90
46331;DHT22;32049;52.346;4.870;2022-11-20T13:00:37;3.10;99.90
46331;DHT22;32049;52.346;4.870;2022-11-20T13:03:43;3.20;99.90
46331;DHT22;32049;52.346;4.870;2022-11-20T13:06:34;3.40;99.90
46331;DHT22;32049;52.346;4.870;2022-11-20T13:09:22;3.60;99.90
46331;DHT22;32049;52.346;4.870;2022-11-20T13:12:13;3.50;99.90
46331;DHT22;32049;52.346;4.870;2022-11-20T13:18:00;3.70;99.90
46331;DHT22;32049;52.346;4.870;2022-11-20T13:20:48;3.80;99.90
46331;DHT22;32049;52.346;4.870;2022-11-20T13:23:36;3.60;99.90
46331;DHT22;32049;52.346;4.870;2022-11-20T13:26:23;3.70;99.90
46331;DHT22;32049;52.346;4.870;2022-11-20T13:29:11;3.50;99.90
46331;DHT22;32049;52.346;4.870;2022-11-20T13:56:33;3.50;99.90
46331;DHT22;32049;52.346;4.870;2022-11-20T13:59:35;3.30;99.90
46331;DHT22;32049;52.346;4.870;2022-11-20T14:02:26;3.60;99.90
46331;DHT22;32049;52.346;4.870;2022-11-20T14:05:17;3.50;99.90
46331;DHT22;32049;52.346;4.870;2022-11-20T14:08:06;3.60;99.90
46331;DHT22;32049;52.346;4.870;2022-11-20T14:11:15;3.70;99.90
46331;DHT22;32049;52.346;4.870;2022-11-20T14:14:10;3.50;99.90
46331;DHT22;32049;52.346;4.870;2022-11-20T14:17:20;3.60;99.90
46331;DHT22;32049;52.346;4.870;2022-11-20T14:20:12;3.50;99.90
46331;DHT22;32049;52.346;4.870;2022-11-20T14:23:01;3.70;99.90
46331;DHT22;32049;52.346;4.870;2022-11-20T14:25:50;3.80;99.90
46331;DHT22;32049;52.346;4.870;2022-11-20T14:28:38;4.00;99.90
46331;DHT22;32049;52.346;4.870;2022-11-20T14:31:26;3.60;99.90
46331;DHT22;32049;52.346;4.870;2022-11-20T14:34:18;3.80;99.90
46331;DHT22;32049;52.346;4.870;2022-11-20T14:37:09;3.70;99.90
46331;DHT22;32049;52.346;4.870;2022-11-20T14:40:04;3.80;99.90
46331;DHT22;32049;52.346;4.870;2022-11-20T14:42:53;3.90;99.90
46331;DHT22;32049;52.346;4.870;2022-11-20T14:45:40;3.80;99.90
46331;DHT22;32049;52.346;4.870;2022-11-20T14:48:32;3.90;99.90
46331;DHT22;32049;52.346;4.870;2022-11-20T14:51:31;3.70;99.90
46331;DHT22;32049;52.346;4.870;2022-11-20T14:54:20;3.70;99.90
46331;DHT22;32049;52.346;4.870;2022-11-20T14:57:20;3.80;99.90
46331;DHT22;32049;52.346;4.870;2022-11-20T15:03:00;3.90;99.90
46331;DHT22;32049;52.346;4.870;2022-11-20T15:05:48;3.80;99.90
46331;DHT22;32049;52.346;4.870;2022-11-20T15:08:36;3.70;99.90
46331;DHT22;32049;52.346;4.870;2022-11-20T15:11:33;3.60;99.90
46331;DHT22;32049;52.346;4.870;2022-11-20T15:14:21;3.90;99.90
46331;DHT22;32049;52.346;4.870;2022-11-20T15:17:10;3.70;99.90
46331;DHT22;32049;52.346;4.870;2022-11-20T15:19:58;3.90;99.90
46331;DHT22;32049;52.346;4.870;2022-11-20T15:22:47;3.80;99.90
46331;DHT22;32049;52.346;4.870;2022-11-20T15:25:35;3.80;99.90
46331;DHT22;32049;52.346;4.870;2022-11-20T15:28:29;3.80;99.90
46331;DHT22;32049;52.346;4.870;2022-11-20T15:52:34;3.90;99.90
46331;DHT22;32049;52.346;4.870;2022-11-20T15:58:30;4.00;99.90
46331;DHT22;32049;52.346;4.870;2022-11-20T16:01:19;3.90;99.90
46331;DHT22;32049;52.346;4.870;2022-11-20T16:04:17;3.80;99.90
46331;DHT22;32049;52.346;4.870;2022-11-20T16:07:05;3.70;99.90
46331;DHT22;32049;52.346;4.870;2022-11-20T16:09:53;3.80;99.90
46331;DHT22;32049;52.346;4.870;2022-11-20T16:12:42;3.80;99.90
46331;DHT22;32049;52.346;4.870;2022-11-20T16:15:52;3.80;99.90
46331;DHT22;32049;52.346;4.870;2022-11-20T16:18:42;4.00;99.90
46331;DHT22;32049;52.346;4.870;2022-11-20T16:21:30;4.00;99.90
46331;DHT22;32049;52.346;4.870;2022-11-20T16:24:27;4.00;99.90
46331;DHT22;32049;52.346;4.870;2022-11-20T16:27:32;3.90;99.90
46331;DHT22;32049;52.346;4.870;2022-11-20T16:30:20;4.00;99.90
46331;DHT22;32049;52.346;4.870;2022-11-20T16:33:12;3.80;99.90
46331;DHT22;32049;52.346;4.870;2022-11-20T16:36:22;3.90;99.90
46331;DHT22;32049;52.346;4.870;2022-11-20T16:39:07;4.00;99.90
46331;DHT22;32049;52.346;4.870;2022-11-20T16:41:55;3.90;99.90
46331;DHT22;32049;52.346;4.870;2022-11-20T16:44:44;3.90;99.90
46331;DHT22;32049;52.346;4.870;2022-11-20T16:47:33;3.90;99.90
46331;DHT22;32049;52.346;4.870;2022-11-20T16:50:21;3.90;99.90
46331;DHT22;32049;52.346;4.870;2022-11-20T16:53:09;3.90;99.90
46331;DHT22;32049;52.346;4.870;2022-11-20T16:55:56;3.90;99.90
46331;DHT22;32049;52.346;4.870;2022-11-20T16:58:44;3.90;99.90
46331;DHT22;32049;52.346;4.870;2022-11-20T17:01:32;3.80;99.90
46331;DHT22;32049;52.346;4.870;2022-11-20T17:04:20;3.90;99.90
46331;DHT22;32049;52.346;4.870;2022-11-20T17:07:09;4.10;99.90
46331;DHT22;32049;52.346;4.870;2022-11-20T17:09:56;4.10;99.90
46331;DHT22;32049;52.346;4.870;2022-11-20T17:12:44;4.00;99.90
46331;DHT22;32049;52.346;4.870;2022-11-20T17:15:31;4.10;99.90
46331;DHT22;32049;52.346;4.870;2022-11-20T17:18:19;4.00;99.90
46331;DHT22;32049;52.346;4.870;2022-11-20T17:21:06;4.00;99.90
46331;DHT22;32049;52.346;4.870;2022-11-20T17:23:53;4.10;99.90
46331;DHT22;32049;52.346;4.870;2022-11-20T17:26:41;4.10;99.90
46331;DHT22;32049;52.346;4.870;2022-11-20T17:29:29;4.20;99.90
46331;DHT22;32049;52.346;4.870;2022-11-20T17:32:17;4.10;99.90
46331;DHT22;32049;52.346;4.870;2022-11-20T17:35:05;4.20;99.90
46331;DHT22;32049;52.346;4.870;2022-11-20T17:37:52;4.30;99.90
46331;DHT22;32049;52.346;4.870;2022-11-20T17:40:40;4.30;99.90
46331;DHT22;32049;52.346;4.870;2022-11-20T17:43:27;4.30;99.90
46331;DHT22;32049;52.346;4.870;2022-11-20T17:46:31;4.30;99.90
46331;DHT22;32049;52.346;4.870;2022-11-20T17:49:20;4.20;99.90
46331;DHT22;32049;52.346;4.870;2022-11-20T17:52:10;4.20;99.90
46331;DHT22;32049;52.346;4.870;2022-11-20T18:01:18;4.40;99.90
46331;DHT22;32049;52.346;4.870;2022-11-20T18:04:06;4.30;99.90
46331;DHT22;32049;52.346;4.870;2022-11-20T18:06:53;4.30;99.90
46331;DHT22;32049;52.346;4.870;2022-11-20T18:09:40;4.30;99.90
46331;DHT22;32049;52.346;4.870;2022-11-20T18:12:27;4.40;99.90
46331;DHT22;32049;52.346;4.870;2022-11-20T18:15:15;4.40;99.90
46331;DHT22;32049;52.346;4.870;2022-11-20T18:18:02;4.30;99.90
46331;DHT22;32049;52.346;4.870;2022-11-20T18:20:52;4.20;99.90
46331;DHT22;32049;52.346;4.870;2022-11-20T18:23:39;4.50;99.90
46331;DHT22;32049;52.346;4.870;2022-11-20T18:26:27;4.50;99.90
46331;DHT22;32049;52.346;4.870;2022-11-20T18:29:15;4.30;99.90
46331;DHT22;32049;52.346;4.870;2022-11-20T18:32:03;4.30;99.90
46331;DHT22;32049;52.346;4.870;2022-11-20T18:34:51;4.40;99.90
46331;DHT22;32049;52.346;4.870;2022-11-20T18:37:38;4.30;99.90
46331;DHT22;32049;52.346;4.870;2022-11-20T18:40:25;4.30;99.90
46331;DHT22;32049;52.346;4.870;2022-11-20T18:43:13;4.10;99.90
46331;DHT22;32049;52.346;4.870;2022-11-20T18:46:19;4.30;99.90
46331;DHT22;32049;52.346;4.870;2022-11-20T18:49:08;4.30;99.90
46331;DHT22;32049;52.346;4.870;2022-11-20T18:51:55;4.50;99.90
46331;DHT22;32049;52.346;4.870;2022-11-20T18:54:42;4.40;99.90
46331;DHT22;32049;52.346;4.870;2022-11-20T18:57:30;4.20;99.90
46331;DHT22;32049;52.346;4.870;2022-11-20T19:00:17;4.20;99.90
46331;DHT22;32049;52.346;4.870;2022-11-20T19:03:05;4.30;99.90
46331;DHT22;32049;52.346;4.870;2022-11-20T19:05:52;4.30;99.90
46331;DHT22;32049;52.346;4.870;2022-11-20T19:08:40;4.20;99.90
46331;DHT22;32049;52.346;4.870;2022-11-20T19:11:27;4.50;99.90
46331;DHT22;32049;52.346;4.870;2022-11-20T19:14:15;4.40;99.90
46331;DHT22;32049;52.346;4.870;2022-11-20T19:17:03;4.30;99.90
46331;DHT22;32049;52.346;4.870;2022-11-20T19:19:51;4.30;99.90
46331;DHT22;32049;52.346;4.870;2022-11-20T19:22:41;4.40;99.90
46331;DHT22;32049;52.346;4.870;2022-11-20T19:25:29;4.60;99.90
46331;DHT22;32049;52.346;4.870;2022-11-20T19:28:23;4.50;99.90
46331;DHT22;32049;52.346;4.870;2022-11-20T19:31:12;4.60;99.90
46331;DHT22;32049;52.346;4.870;2022-11-20T19:34:01;4.50;99.90
46331;DHT22;32049;52.346;4.870;2022-11-20T19:36:48;4.60;99.90
46331;DHT22;32049;52.346;4.870;2022-11-20T19:39:36;4.40;99.90
46331;DHT22;32049;52.346;4.870;2022-11-20T19:42:23;4.30;99.90
46331;DHT22;32049;52.346;4.870;2022-11-20T19:45:11;4.50;99.90
46331;DHT22;32049;52.346;4.870;2022-11-20T19:57:07;4.30;99.90
46331;DHT22;32049;52.346;4.870;2022-11-20T19:59:55;4.30;99.90
46331;DHT22;32049;52.346;4.870;2022-11-20T20:02:42;4.40;99.90
46331;DHT22;32049;52.346;4.870;2022-11-20T20:05:30;4.40;99.90
46331;DHT22;32049;52.346;4.870;2022-11-20T20:08:17;4.50;99.90
46331;DHT22;32049;52.346;4.870;2022-11-20T20:11:15;4.40;99.90
46331;DHT22;32049;52.346;4.870;2022-11-20T20:14:04;4.40;99.90
46331;DHT22;32049;52.346;4.870;2022-11-20T20:16:51;4.40;99.90
46331;DHT22;32049;52.346;4.870;2022-11-20T20:19:39;4.40;99.90
46331;DHT22;32049;52.346;4.870;2022-11-20T20:22:27;4.50;99.90
46331;DHT22;32049;52.346;4.870;2022-11-20T20:25:14;4.50;99.90
46331;DHT22;32049;52.346;4.870;2022-11-20T20:28:02;4.60;99.90
46331;DHT22;32049;52.346;4.870;2022-11-20T20:30:49;4.50;99.90
46331;DHT22;32049;52.346;4.870;2022-11-20T20:33:37;4.50;99.90
46331;DHT22;32049;52.346;4.870;2022-11-20T20:36:25;4.70;99.90
46331;DHT22;32049;52.346;4.870;2022-11-20T20:39:13;4.70;99.90
46331;DHT22;32049;52.346;4.870;2022-11-20T20:42:00;4.70;99.90
46331;DHT22;32049;52.346;4.870;2022-11-20T20:44:47;4.60;99.90
46331;DHT22;32049;52.346;4.870;2022-11-20T20:47:54;4.70;99.90
46331;DHT22;32049;52.346;4.870;2022-11-20T20:50:51;4.60;99.90
46331;DHT22;32049;52.346;4.870;2022-11-20T20:53:39;4.70;99.90
46331;DHT22;32049;52.346;4.870;2022-11-20T20:56:26;4.70;99.90
46331;DHT22;32049;52.346;4.870;2022-11-20T20:59:14;4.70;99.90
46331;DHT22;32049;52.346;4.870;2022-11-20T21:02:02;4.60;99.90
46331;DHT22;32049;52.346;4.870;2022-11-20T21:04:49;4.70;99.90
46331;DHT22;32049;52.346;4.870;2022-11-20T21:07:37;4.70;99.90
46331;DHT22;32049;52.346;4.870;2022-11-20T21:10:44;4.90;99.90
46331;DHT22;32049;52.346;4.870;2022-11-20T21:13:32;4.80;99.90
46331;DHT22;32049;52.346;4.870;2022-11-20T21:16:19;4.70;99.90
46331;DHT22;32049;52.346;4.870;2022-11-20T21:19:09;4.80;99.90
46331;DHT22;32049;52.346;4.870;2022-11-20T21:21:57;4.70;99.90
46331;DHT22;32049;52.346;4.870;2022-11-20T21:24:50;4.70;99.90
46331;DHT22;32049;52.346;4.870;2022-11-20T21:27:37;4.80;99.90
46331;DHT22;32049;52.346;4.870;2022-11-20T21:30:25;4.90;99.90
46331;DHT22;32049;52.346;4.870;2022-11-20T21:33:12;4.80;99.90
46331;DHT22;32049;52.346;4.870;2022-11-20T21:36:00;4.80;99.90
46331;DHT22;32049;52.346;4.870;2022-11-20T21:38:49;4.90;99.90
46331;DHT22;32049;52.346;4.870;2022-11-20T21:41:37;4.80;99.90
46331;DHT22;32049;52.346;4.870;2022-11-20T21:44:24;4.60;99.90
46331;DHT22;32049;52.346;4.870;2022-11-20T21:47:20;4.60;99.90
46331;DHT22;32049;52.346;4.870;2022-11-20T21:50:07;4.80;99.90
46331;DHT22;32049;52.346;4.870;2022-11-20T21:52:55;4.90;99.90
46331;DHT22;32049;52.346;4.870;2022-11-20T21:55:43;4.80;99.90
46331;DHT22;32049;52.346;4.870;2022-11-20T21:58:39;4.80;99.90
46331;DHT22;32049;52.346;4.870;2022-11-20T22:01:28;4.60;99.90
46331;DHT22;32049;52.346;4.870;2022-11-20T22:04:16;4.70;99.90
46331;DHT22;32049;52.346;4.870;2022-11-20T22:07:07;4.60;99.90
46331;DHT22;32049;52.346;4.870;2022-11-20T22:09:54;4.70;99.90
46331;DHT22;32049;52.346;4.870;2022-11-20T22:12:42;4.80;99.90
46331;DHT22;32049;52.346;4.870;2022-11-20T22:15:29;4.80;99.90
46331;DHT22;32049;52.346;4.870;2022-11-20T22:18:40;4.80;99.90
46331;DHT22;32049;52.346;4.870;2022-11-20T22:21:28;4.80;99.90
46331;DHT22;32049;52.346;4.870;2022-11-20T22:24:16;4.90;99.90
46331;DHT22;32049;52.346;4.870;2022-11-20T22:27:04;4.70;99.90
46331;DHT22;32049;52.346;4.870;2022-11-20T22:29:52;4.90;99.90
46331;DHT22;32049;52.346;4.870;2022-11-20T22:32:40;4.80;99.90
46331;DHT22;32049;52.346;4.870;2022-11-20T22:35:28;4.80;99.90
46331;DHT22;32049;52.346;4.870;2022-11-20T22:38:15;5.00;99.90
46331;DHT22;32049;52.346;4.870;2022-11-20T22:41:13;4.90;99.90
46331;DHT22;32049;52.346;4.870;2022-11-20T22:44:02;5.00;99.90
46331;DHT22;32049;52.346;4.870;2022-11-20T22:46:50;5.00;99.90
46331;DHT22;32049;52.346;4.870;2022-11-20T22:49:38;4.90;99.90
46331;DHT22;32049;52.346;4.870;2022-11-20T22:52:25;4.80;99.90
46331;DHT22;32049;52.346;4.870;2022-11-20T22:55:13;4.80;99.90
46331;DHT22;32049;52.346;4.870;2022-11-20T22:58:02;4.70;99.90
46331;DHT22;32049;52.346;4.870;2022-11-20T23:00:50;4.50;99.90
46331;DHT22;32049;52.346;4.870;2022-11-20T23:03:39;4.60;99.90
46331;DHT22;32049;52.346;4.870;2022-11-20T23:06:26;4.50;99.90
46331;DHT22;32049;52.346;4.870;2022-11-20T23:09:14;4.60;99.90
46331;DHT22;32049;52.346;4.870;2022-11-20T23:12:03;4.70;99.90
46331;DHT22;32049;52.346;4.870;2022-11-20T23:14:51;4.60;99.90
46331;DHT22;32049;52.346;4.870;2022-11-20T23:32:54;4.50;99.90
46331;DHT22;32049;52.346;4.870;2022-11-20T23:35:45;4.80;99.90
46331;DHT22;32049;52.346;4.870;2022-11-20T23:38:33;4.70;99.90
46331;DHT22;32049;52.346;4.870;2022-11-20T23:41:21;4.70;99.90
46331;DHT22;32049;52.346;4.870;2022-11-20T23:44:09;4.80;99.90
46331;DHT22;32049;52.346;4.870;2022-11-20T23:46:56;4.80;99.90
46331;DHT22;32049;52.346;4.870;2022-11-20T23:49:43;4.80;99.90
46331;DHT22;32049;52.346;4.870;2022-11-20T23:52:31;4.90;99.90
46331;DHT22;32049;52.346;4.870;2022-11-20T23:55:18;4.80;99.90
46331;DHT22;32049;52.346;4.870;2022-11-20T23:58:06;4.80;99.90
